Tropical Cyclones
[Index]
Main Index Home Page Stock Weather Photos Extreme Storms Discussion Storm News and Storm Chasing Reports Tropical Cyclones / Hurricanes / Typhoons Weather Data and Links Wild Fires / Bushfires Weather Observation Techniques Weather Picture Catalogue Tornado Pictures and Reports Stock Video Footage and DVDs for sale
Season 1993-1994 Tropical Cyclone VIVIENNE Track Map
Season 1993-1994 Summaries: [BoM-AU] [JTWC-AU] [JTWC-SIO] [JTWC-SPAC] [JTWC-SH]
<<- Previous TC | BoM 1993-1994 Season | Next TC ->>

click for intensity scale information  Lat/long Grid: Show Hide

 Date Labels: Show Hide

Bureau of Meteorology Tropical Cyclone Data

Name: VIVIENNE
Number: 770 / 199394_10

06 Apr 1994 00:00 UTC to 12 Apr 1994 00:00 UTC

    date/time    lat    long    hPa   cat  kts
1994-04-06 00   10.2   126.6   1006                     
1994-04-06 06   10.2   125.9   1006                     
1994-04-06 12   10.4   125.2   1004         21          
1994-04-06 18   10.5   124.5   1000         27          
1994-04-07 00   10.7   123.8   1000         27          
1994-04-07 03   10.8   123.2    995    1    35          
1994-04-07 06   11.1   122.9    995    1    35          
1994-04-07 09   11.4   122.4    990    1    41          
1994-04-07 12   11.8   122.1    985    2    47          
1994-04-07 15   11.9   121.8    980    2    54          
1994-04-07 18   12.2   121.6    975    2    60          
1994-04-07 21   12.3   121.2    965    3    70          
1994-04-08 00   12.5   121.0    955    4    80          
1994-04-08 03   12.7   120.6    955    4    80          
1994-04-08 06   13.1   120.3    960    3    76          
1994-04-08 09   13.5   120.1    960    3    76          
1994-04-08 12   13.8   119.7    960    3    76          
1994-04-08 15   14.0   119.5    960    3    76          
1994-04-08 18   14.2   119.3    960    3    76          
1994-04-08 21   14.3   119.1    960    3    76          
1994-04-09 00   14.4   118.9    960    3    76          
1994-04-09 03   14.4   118.3    960    3    76          
1994-04-09 06   14.4   117.7    965    3    70          
1994-04-09 09   14.4   117.1    970    3    66          
1994-04-09 12   14.4   116.5    975    2    60          
1994-04-09 15   14.4   115.1    980    2    54          
1994-04-09 18   14.5   115.4    985    2    47          
1994-04-09 21   14.5   114.8    990    1    41          
1994-04-10 00   14.6   114.1    990    1    41          
1994-04-10 03   15.0   113.3    990    1    41          
1994-04-10 06   15.4   112.5    990    1    41          
1994-04-10 09   15.6   111.6    990    1    41          
1994-04-10 12   15.9   110.7    990    1    41          
1994-04-10 15   16.1   109.1    990    1    41          
1994-04-10 18   16.2   109.0    995    1    35          
1994-04-10 21   16.4   108.1    995    1    35          
1994-04-11 00   16.6   107.5   1000         27          
1994-04-11 06   17.0   106.5   1005         19          
1994-04-11 12   17.3   105.6   1005         19          
1994-04-11 18   17.4   105.2   1005         19          
1994-04-12 00   17.7   105.1   1005         19          
Winds are 10-min average.

Tropical cyclone tracks developed by Michael Bath using data from the Bureau of Meteorology and Google Maps.


[Australian Severe Weather index] [Copyright Notice] [Email Contacts] [Search This Site] [Privacy Policy]
Document: tropical_cyclone_vivienne.htm Updated: 30 May 2013